Create Tblcommutelog Verified Points Advance Search
| # | Trip ID | Id Commuter | Trip Date | Trip Num | Current Lat | Current Lng | Delta Distance | Current Time | Activity | Activity Confidence | Current Speed | |
|---|---|---|---|---|---|---|---|---|---|---|---|---|
| 70001 | 251028_789313_16515912_0651 | 789313 | (not set) | (not set) | 38.7868206 | -77.5164215 | 20.6771 | 2025-10-28 07:44:18 | in_vehicle | 100 | 6.7190000625855 | |
| 70002 | 251028_789313_16515912_0651 | 789313 | (not set) | (not set) | 38.805042 | -77.4348885 | 1.6328 | 2025-10-28 06:58:03 | in_vehicle | 100 | 5.391293463392 | |
| 70003 | 251028_789313_16515912_0651 | 789313 | (not set) | (not set) | 38.8169652 | -77.413712 | 3.385 | 2025-10-28 07:03:32 | in_vehicle | 100 | 6.3568982628054 | |
| 70004 | 251028_789313_16515912_0651 | 789313 | (not set) | (not set) | 38.8312482 | -77.4044657 | 4.8157 | 2025-10-28 07:06:55 | in_vehicle | 100 | 6.4418357220131 | |
| 70005 | 251028_785147_16514010_0639 | 785147 | (not set) | (not set) | 38.960174116667 | -77.496767016667 | 42.3087 | 2025-10-28 07:52:36 | still | 33 | 9.7499262385223 | |
| 70006 | 251028_789313_16515912_0651 | 789313 | (not set) | (not set) | 38.8583727 | -77.3636834 | 8.3924 | 2025-10-28 07:15:35 | in_vehicle | 100 | 5.7399840854024 | |
| 70007 | 251028_788403_16500126_0723 | 788403 | (not set) | (not set) | 39.157512169394 | -77.244722875025 | 16.4336 | 2025-10-28 07:52:39 | in_vehicle | 100 | 4.7430865378598 | |
| 70008 | 251028_787356_16515061_0736 | 787356 | (not set) | (not set) | 39.357270105267 | -76.746060726187 | 4.5986 | 2025-10-28 07:52:47 | in_vehicle | 100 | 4.1664058937656 | |
| 70009 | 251028_788403_16500126_0723 | 788403 | (not set) | (not set) | 39.156803060808 | -77.243141338284 | 16.5316 | 2025-10-28 07:52:54 | in_vehicle | 100 | 4.7117937897306 | |
| 70010 | 251028_771304_6423049_0724 | 771304 | (not set) | (not set) | 38.914040457102 | -77.046655672422 | 2.8382 | 2025-10-28 07:52:58 | unknown | 100 | 2.7939953686733 | |
| 70011 | 251028_781297_16513986_0744 | 781297 | (not set) | (not set) | 38.887525826544 | -77.017654554152 | 0.7184 | 2025-10-28 07:53:03 | on_foot | 100 | 2.0563805913435 | |
| 70012 | 251028_780745_16421763_0751 | 780745 | (not set) | (not set) | 39.088727503194 | -77.578666394963 | 0.167 | 2025-10-28 07:53:10 | in_vehicle | 100 | 1.8239201766699 | |
| 70013 | 251028_784875_16514072_0704 | 784875 | (not set) | (not set) | 39.120591772075 | -77.164612414589 | 21.8941 | 2025-10-28 07:53:17 | in_vehicle | 100 | 7.5773154398419 | |
| 70014 | 251028_748111_16508640_0711 | 748111 | (not set) | (not set) | 38.889342029601 | -77.163690887753 | 13.8776 | 2025-10-28 07:53:22 | in_vehicle | 100 | 13.871628206389 | |
| 70015 | 251028_784389_6428266_0705 | 784389 | (not set) | (not set) | 38.879516136141 | -77.127435763821 | 31.2041 | 2025-10-28 07:53:26 | in_vehicle | 100 | 11.028458519227 | |
| 70016 | 251028_789569_16428277_0730 | 789569 | (not set) | (not set) | 39.2904012 | -76.6179849 | 0.2783 | 2025-10-28 07:46:03 | in_vehicle | 100 | -0.44703925898772 | |
| 70017 | 251028_748111_16508640_0711 | 748111 | (not set) | (not set) | 38.928218340265 | -77.203699962019 | 10.0826 | 2025-10-28 07:49:14 | in_vehicle | 100 | 9.285005409175 | |
| 70018 | 251028_786638_16514715_0646 | 786638 | (not set) | (not set) | 38.998963844527 | -76.59361164529 | 25.1122 | 2025-10-28 07:49:21 | in_vehicle | 100 | 12.771911629279 | |
| 70019 | 251028_788589_6461772_0739 | 788589 | (not set) | (not set) | 39.173518237193 | -77.270356349955 | 1.382 | 2025-10-28 07:49:27 | on_foot | 100 | 0.29057551834202 | |
| 70020 | 251028_789579_16464305_0707 | 789579 | (not set) | (not set) | 38.953137898217 | -77.388413609331 | 17.3395 | 2025-10-28 07:49:31 | in_vehicle | 100 | 7.791894284156 |